sensor_id;sensor_type;location;lat;lon;timestamp;pressure;altitude;pressure_sealevel;temperature;humidity
41234;BME280;26968;42.686;23.352;2023-11-19T00:00:27;95090.56;;;1.90;nan
41234;BME280;26968;42.686;23.352;2023-11-19T00:02:53;95068.19;;;1.76;nan
41234;BME280;26968;42.686;23.352;2023-11-19T00:05:18;95198.38;;;2.52;nan
41234;BME280;26968;42.686;23.352;2023-11-19T00:07:44;95183.94;;;2.49;nan
41234;BME280;26968;42.686;23.352;2023-11-19T00:10:10;95182.28;;;2.66;nan
41234;BME280;26968;42.686;23.352;2023-11-19T00:12:37;95192.94;;;2.53;nan
41234;BME280;26968;42.686;23.352;2023-11-19T00:15:03;95110.63;;;2.08;nan
41234;BME280;26968;42.686;23.352;2023-11-19T00:17:30;95194.84;;;2.46;nan
41234;BME280;26968;42.686;23.352;2023-11-19T00:19:55;95158.41;;;2.15;nan
41234;BME280;26968;42.686;23.352;2023-11-19T00:22:21;95203.06;;;2.50;nan
41234;BME280;26968;42.686;23.352;2023-11-19T00:24:47;95129.09;;;2.13;nan
41234;BME280;26968;42.686;23.352;2023-11-19T00:27:12;95099.53;;;1.94;nan
41234;BME280;26968;42.686;23.352;2023-11-19T00:29:38;95175.69;;;2.34;nan
41234;BME280;26968;42.686;23.352;2023-11-19T00:32:04;95214.03;;;2.58;nan
41234;BME280;26968;42.686;23.352;2023-11-19T00:34:30;95186.88;;;2.41;nan
41234;BME280;26968;42.686;23.352;2023-11-19T00:36:56;95170.25;;;2.36;nan
41234;BME280;26968;42.686;23.352;2023-11-19T00:39:22;95197.66;;;2.33;nan
41234;BME280;26968;42.686;23.352;2023-11-19T00:41:47;95179.50;;;2.20;nan
41234;BME280;26968;42.686;23.352;2023-11-19T00:44:13;95215.94;;;2.51;nan
41234;BME280;26968;42.686;23.352;2023-11-19T00:46:39;95205.22;;;2.53;nan
41234;BME280;26968;42.686;23.352;2023-11-19T00:49:05;95229.78;;;2.52;nan
41234;BME280;26968;42.686;23.352;2023-11-19T00:51:30;95134.66;;;1.86;nan
41234;BME280;26968;42.686;23.352;2023-11-19T00:53:57;95209.44;;;2.54;nan
41234;BME280;26968;42.686;23.352;2023-11-19T00:56:23;95210.81;;;2.56;nan
41234;BME280;26968;42.686;23.352;2023-11-19T00:58:49;95153.84;;;2.28;nan
41234;BME280;26968;42.686;23.352;2023-11-19T01:01:14;95238.16;;;2.60;nan
41234;BME280;26968;42.686;23.352;2023-11-19T01:03:40;95172.72;;;2.30;nan
41234;BME280;26968;42.686;23.352;2023-11-19T01:06:06;95212.06;;;2.54;nan
41234;BME280;26968;42.686;23.352;2023-11-19T01:08:31;95221.25;;;2.45;nan
41234;BME280;26968;42.686;23.352;2023-11-19T01:10:57;95189.97;;;2.20;nan
41234;BME280;26968;42.686;23.352;2023-11-19T01:13:22;95208.31;;;2.31;nan
41234;BME280;26968;42.686;23.352;2023-11-19T01:15:48;95217.69;;;2.39;nan
41234;BME280;26968;42.686;23.352;2023-11-19T01:18:13;95150.88;;;2.07;nan
41234;BME280;26968;42.686;23.352;2023-11-19T01:20:39;95205.06;;;2.36;nan
41234;BME280;26968;42.686;23.352;2023-11-19T01:23:04;95200.69;;;2.30;nan
41234;BME280;26968;42.686;23.352;2023-11-19T01:25:30;95171.91;;;2.30;nan
41234;BME280;26968;42.686;23.352;2023-11-19T01:27:55;95180.22;;;2.27;nan
41234;BME280;26968;42.686;23.352;2023-11-19T01:30:24;95128.31;;;1.76;nan
41234;BME280;26968;42.686;23.352;2023-11-19T01:32:49;95204.50;;;2.16;nan
41234;BME280;26968;42.686;23.352;2023-11-19T01:35:15;95229.47;;;2.48;nan
41234;BME280;26968;42.686;23.352;2023-11-19T01:37:40;95213.13;;;2.35;nan
41234;BME280;26968;42.686;23.352;2023-11-19T01:40:06;95185.38;;;2.15;nan
41234;BME280;26968;42.686;23.352;2023-11-19T01:42:40;95210.50;;;2.35;nan
41234;BME280;26968;42.686;23.352;2023-11-19T01:45:06;95223.50;;;2.41;nan
41234;BME280;26968;42.686;23.352;2023-11-19T01:47:33;95208.84;;;2.22;nan
41234;BME280;26968;42.686;23.352;2023-11-19T01:49:59;95180.19;;;1.97;nan
41234;BME280;26968;42.686;23.352;2023-11-19T01:52:25;95252.19;;;2.36;nan
41234;BME280;26968;42.686;23.352;2023-11-19T01:54:53;95238.00;;;2.25;nan
41234;BME280;26968;42.686;23.352;2023-11-19T01:57:22;95215.47;;;2.24;nan
41234;BME280;26968;42.686;23.352;2023-11-19T01:59:50;95226.44;;;2.33;nan
41234;BME280;26968;42.686;23.352;2023-11-19T02:02:16;95190.13;;;2.07;nan
41234;BME280;26968;42.686;23.352;2023-11-19T02:04:47;95224.34;;;2.23;nan
41234;BME280;26968;42.686;23.352;2023-11-19T02:07:14;95184.31;;;2.05;nan
41234;BME280;26968;42.686;23.352;2023-11-19T02:09:42;95205.81;;;2.25;nan
41234;BME280;26968;42.686;23.352;2023-11-19T02:12:08;95207.31;;;2.32;nan
41234;BME280;26968;42.686;23.352;2023-11-19T02:14:34;95213.75;;;2.18;nan
41234;BME280;26968;42.686;23.352;2023-11-19T02:17:00;95068.47;;;1.38;nan
41234;BME280;26968;42.686;23.352;2023-11-19T02:19:25;95213.34;;;2.33;nan
41234;BME280;26968;42.686;23.352;2023-11-19T02:21:51;95191.63;;;2.14;nan
41234;BME280;26968;42.686;23.352;2023-11-19T02:24:19;95223.91;;;2.26;nan
41234;BME280;26968;42.686;23.352;2023-11-19T02:29:22;95192.69;;;1.95;nan
41234;BME280;26968;42.686;23.352;2023-11-19T02:31:48;95169.06;;;1.83;nan
41234;BME280;26968;42.686;23.352;2023-11-19T02:34:13;95192.81;;;2.00;nan
41234;BME280;26968;42.686;23.352;2023-11-19T02:36:39;95170.28;;;1.99;nan
41234;BME280;26968;42.686;23.352;2023-11-19T02:39:07;95161.97;;;1.90;nan
41234;BME280;26968;42.686;23.352;2023-11-19T02:41:36;95175.31;;;2.01;nan
41234;BME280;26968;42.686;23.352;2023-11-19T02:44:01;95197.84;;;2.02;nan
41234;BME280;26968;42.686;23.352;2023-11-19T02:46:28;95182.66;;;1.92;nan
41234;BME280;26968;42.686;23.352;2023-11-19T02:48:53;95179.53;;;2.02;nan
41234;BME280;26968;42.686;23.352;2023-11-19T02:51:19;95199.22;;;2.04;nan
41234;BME280;26968;42.686;23.352;2023-11-19T02:53:44;95203.72;;;1.97;nan
41234;BME280;26968;42.686;23.352;2023-11-19T02:56:13;95212.44;;;2.09;nan
41234;BME280;26968;42.686;23.352;2023-11-19T02:58:51;95204.28;;;1.99;nan
41234;BME280;26968;42.686;23.352;2023-11-19T03:01:24;95187.88;;;1.92;nan
41234;BME280;26968;42.686;23.352;2023-11-19T03:03:55;95223.78;;;2.03;nan
41234;BME280;26968;42.686;23.352;2023-11-19T03:06:22;95203.06;;;1.83;nan
41234;BME280;26968;42.686;23.352;2023-11-19T03:08:48;95212.38;;;1.98;nan
41234;BME280;26968;42.686;23.352;2023-11-19T03:11:14;95182.94;;;1.84;nan
41234;BME280;26968;42.686;23.352;2023-11-19T03:13:39;95129.00;;;1.53;nan
41234;BME280;26968;42.686;23.352;2023-11-19T03:16:05;95208.00;;;1.91;nan
41234;BME280;26968;42.686;23.352;2023-11-19T03:18:31;95223.78;;;2.03;nan
41234;BME280;26968;42.686;23.352;2023-11-19T03:20:56;95229.66;;;1.99;nan
41234;BME280;26968;42.686;23.352;2023-11-19T03:23:24;95194.28;;;1.78;nan
41234;BME280;26968;42.686;23.352;2023-11-19T03:25:53;95182.16;;;1.65;nan
41234;BME280;26968;42.686;23.352;2023-11-19T03:28:18;95190.72;;;1.72;nan
41234;BME280;26968;42.686;23.352;2023-11-19T03:30:44;95214.84;;;1.92;nan
41234;BME280;26968;42.686;23.352;2023-11-19T03:33:09;95181.88;;;1.73;nan
41234;BME280;26968;42.686;23.352;2023-11-19T03:35:34;95225.66;;;1.96;nan
41234;BME280;26968;42.686;23.352;2023-11-19T03:38:00;95189.50;;;1.75;nan
41234;BME280;26968;42.686;23.352;2023-11-19T03:40:26;95193.56;;;1.71;nan
41234;BME280;26968;42.686;23.352;2023-11-19T03:42:52;95188.91;;;1.73;nan
41234;BME280;26968;42.686;23.352;2023-11-19T03:45:17;95213.09;;;1.86;nan
41234;BME280;26968;42.686;23.352;2023-11-19T03:47:43;95205.25;;;1.68;nan
41234;BME280;26968;42.686;23.352;2023-11-19T03:50:08;95214.47;;;1.71;nan
41234;BME280;26968;42.686;23.352;2023-11-19T03:52:35;95198.41;;;1.49;nan
41234;BME280;26968;42.686;23.352;2023-11-19T03:55:00;95225.66;;;1.60;nan
41234;BME280;26968;42.686;23.352;2023-11-19T03:57:27;95189.19;;;1.46;nan
41234;BME280;26968;42.686;23.352;2023-11-19T03:59:53;95238.03;;;1.89;nan
41234;BME280;26968;42.686;23.352;2023-11-19T04:02:18;95191.06;;;1.39;nan
41234;BME280;26968;42.686;23.352;2023-11-19T04:04:44;95199.06;;;1.44;nan
41234;BME280;26968;42.686;23.352;2023-11-19T04:07:09;95217.38;;;1.63;nan
41234;BME280;26968;42.686;23.352;2023-11-19T04:09:35;95217.38;;;1.63;nan
41234;BME280;26968;42.686;23.352;2023-11-19T04:12:03;95274.84;;;1.87;nan
41234;BME280;26968;42.686;23.352;2023-11-19T04:14:28;95278.34;;;1.81;nan
41234;BME280;26968;42.686;23.352;2023-11-19T04:16:54;95252.28;;;1.68;nan
41234;BME280;26968;42.686;23.352;2023-11-19T04:19:20;95233.50;;;1.60;nan
41234;BME280;26968;42.686;23.352;2023-11-19T04:21:45;95290.47;;;1.94;nan
41234;BME280;26968;42.686;23.352;2023-11-19T04:24:12;95277.25;;;1.89;nan
41234;BME280;26968;42.686;23.352;2023-11-19T04:26:44;95236.19;;;1.71;nan
41234;BME280;26968;42.686;23.352;2023-11-19T04:29:14;95242.63;;;1.69;nan
41234;BME280;26968;42.686;23.352;2023-11-19T04:31:41;95216.56;;;1.62;nan
41234;BME280;26968;42.686;23.352;2023-11-19T04:34:07;95131.00;;;0.96;nan
41234;BME280;26968;42.686;23.352;2023-11-19T04:36:33;95235.47;;;1.64;nan
41234;BME280;26968;42.686;23.352;2023-11-19T04:38:59;95280.16;;;1.99;nan
41234;BME280;26968;42.686;23.352;2023-11-19T04:41:25;95284.75;;;2.04;nan
41234;BME280;26968;42.686;23.352;2023-11-19T04:43:53;95244.69;;;1.67;nan
41234;BME280;26968;42.686;23.352;2023-11-19T04:46:18;95255.00;;;1.80;nan
41234;BME280;26968;42.686;23.352;2023-11-19T04:48:44;95288.28;;;1.91;nan
41234;BME280;26968;42.686;23.352;2023-11-19T04:51:10;95260.38;;;1.67;nan
41234;BME280;26968;42.686;23.352;2023-11-19T04:53:35;95273.81;;;1.70;nan
41234;BME280;26968;42.686;23.352;2023-11-19T04:56:01;95306.31;;;1.99;nan
41234;BME280;26968;42.686;23.352;2023-11-19T04:58:28;95305.44;;;1.87;nan
41234;BME280;26968;42.686;23.352;2023-11-19T05:00:54;95307.66;;;1.83;nan
41234;BME280;26968;42.686;23.352;2023-11-19T05:03:19;95298.28;;;1.76;nan
41234;BME280;26968;42.686;23.352;2023-11-19T05:05:45;95187.69;;;1.14;nan
41234;BME280;26968;42.686;23.352;2023-11-19T05:08:10;95261.59;;;1.64;nan
41234;BME280;26968;42.686;23.352;2023-11-19T05:10:36;95297.28;;;1.77;nan
41234;BME280;26968;42.686;23.352;2023-11-19T05:13:02;95291.03;;;1.78;nan
41234;BME280;26968;42.686;23.352;2023-11-19T05:15:27;95296.06;;;1.79;nan
41234;BME280;26968;42.686;23.352;2023-11-19T05:17:53;95325.41;;;2.00;nan
41234;BME280;26968;42.686;23.352;2023-11-19T05:20:18;95324.41;;;2.01;nan
41234;BME280;26968;42.686;23.352;2023-11-19T05:22:44;95274.88;;;1.63;nan
41234;BME280;26968;42.686;23.352;2023-11-19T05:25:11;95348.75;;;2.01;nan
41234;BME280;26968;42.686;23.352;2023-11-19T05:27:37;95353.63;;;1.98;nan
41234;BME280;26968;42.686;23.352;2023-11-19T05:30:04;95327.81;;;2.01;nan
41234;BME280;26968;42.686;23.352;2023-11-19T05:32:32;95291.47;;;1.75;nan
41234;BME280;26968;42.686;23.352;2023-11-19T05:34:58;95247.13;;;1.62;nan
41234;BME280;26968;42.686;23.352;2023-11-19T05:37:24;95305.94;;;1.96;nan
41234;BME280;26968;42.686;23.352;2023-11-19T05:39:50;95320.91;;;1.88;nan
41234;BME280;26968;42.686;23.352;2023-11-19T05:42:16;95330.91;;;1.91;nan
41234;BME280;26968;42.686;23.352;2023-11-19T05:44:41;95331.16;;;1.90;nan
41234;BME280;26968;42.686;23.352;2023-11-19T05:47:07;95261.53;;;1.52;nan
41234;BME280;26968;42.686;23.352;2023-11-19T05:49:32;95339.84;;;1.84;nan
41234;BME280;26968;42.686;23.352;2023-11-19T05:51:58;95321.19;;;1.80;nan
41234;BME280;26968;42.686;23.352;2023-11-19T05:54:24;95351.56;;;2.00;nan
41234;BME280;26968;42.686;23.352;2023-11-19T05:56:49;95327.75;;;1.89;nan
41234;BME280;26968;42.686;23.352;2023-11-19T05:59:19;95324.44;;;1.76;nan
41234;BME280;26968;42.686;23.352;2023-11-19T06:01:45;95342.94;;;1.99;nan
41234;BME280;26968;42.686;23.352;2023-11-19T06:04:10;95345.25;;;2.07;nan
41234;BME280;26968;42.686;23.352;2023-11-19T06:06:36;95368.25;;;2.05;nan
41234;BME280;26968;42.686;23.352;2023-11-19T06:09:03;95365.72;;;1.92;nan
41234;BME280;26968;42.686;23.352;2023-11-19T06:11:29;95352.13;;;1.83;nan
41234;BME280;26968;42.686;23.352;2023-11-19T06:13:54;95360.44;;;1.99;nan
41234;BME280;26968;42.686;23.352;2023-11-19T06:16:20;95324.66;;;1.74;nan
41234;BME280;26968;42.686;23.352;2023-11-19T06:18:45;95297.72;;;1.74;nan
41234;BME280;26968;42.686;23.352;2023-11-19T06:21:12;95284.72;;;1.67;nan
41234;BME280;26968;42.686;23.352;2023-11-19T06:23:37;95311.25;;;1.89;nan
41234;BME280;26968;42.686;23.352;2023-11-19T06:26:03;95342.50;;;2.02;nan
41234;BME280;26968;42.686;23.352;2023-11-19T06:28:31;95332.38;;;1.87;nan
41234;BME280;26968;42.686;23.352;2023-11-19T06:30:56;95363.00;;;2.05;nan
41234;BME280;26968;42.686;23.352;2023-11-19T06:33:23;95326.63;;;1.79;nan
41234;BME280;26968;42.686;23.352;2023-11-19T06:35:49;95370.34;;;1.97;nan
41234;BME280;26968;42.686;23.352;2023-11-19T06:38:14;95336.00;;;1.86;nan
41234;BME280;26968;42.686;23.352;2023-11-19T06:40:40;95342.59;;;1.71;nan
41234;BME280;26968;42.686;23.352;2023-11-19T06:43:06;95338.75;;;1.48;nan
41234;BME280;26968;42.686;23.352;2023-11-19T06:45:33;95276.03;;;1.48;nan
41234;BME280;26968;42.686;23.352;2023-11-19T06:48:02;95346.25;;;1.88;nan
41234;BME280;26968;42.686;23.352;2023-11-19T06:50:33;95271.38;;;1.26;nan
41234;BME280;26968;42.686;23.352;2023-11-19T06:52:59;95362.50;;;1.97;nan
41234;BME280;26968;42.686;23.352;2023-11-19T06:55:26;95331.50;;;1.93;nan
41234;BME280;26968;42.686;23.352;2023-11-19T06:57:52;95365.03;;;2.03;nan
41234;BME280;26968;42.686;23.352;2023-11-19T07:00:17;95353.66;;;1.91;nan
41234;BME280;26968;42.686;23.352;2023-11-19T07:02:43;95339.50;;;1.80;nan
41234;BME280;26968;42.686;23.352;2023-11-19T07:05:09;95370.34;;;1.72;nan
41234;BME280;26968;42.686;23.352;2023-11-19T07:07:35;95344.19;;;1.72;nan
41234;BME280;26968;42.686;23.352;2023-11-19T07:10:01;95370.41;;;1.90;nan
41234;BME280;26968;42.686;23.352;2023-11-19T07:12:27;95379.25;;;1.89;nan
41234;BME280;26968;42.686;23.352;2023-11-19T07:14:53;95345.47;;;1.63;nan
41234;BME280;26968;42.686;23.352;2023-11-19T07:17:20;95344.78;;;1.49;nan
41234;BME280;26968;42.686;23.352;2023-11-19T07:19:46;95397.81;;;1.81;nan
41234;BME280;26968;42.686;23.352;2023-11-19T07:22:12;95367.13;;;1.70;nan
41234;BME280;26968;42.686;23.352;2023-11-19T07:24:40;95356.13;;;1.61;nan
41234;BME280;26968;42.686;23.352;2023-11-19T07:27:07;95346.91;;;1.59;nan
41234;BME280;26968;42.686;23.352;2023-11-19T07:29:34;95339.94;;;1.52;nan
41234;BME280;26968;42.686;23.352;2023-11-19T07:32:01;95394.13;;;1.88;nan
41234;BME280;26968;42.686;23.352;2023-11-19T07:34:30;95410.03;;;1.87;nan
41234;BME280;26968;42.686;23.352;2023-11-19T07:36:56;95414.00;;;1.96;nan
41234;BME280;26968;42.686;23.352;2023-11-19T07:39:24;95380.38;;;1.75;nan
41234;BME280;26968;42.686;23.352;2023-11-19T07:41:50;95415.81;;;1.96;nan
41234;BME280;26968;42.686;23.352;2023-11-19T07:44:15;95383.41;;;1.72;nan
41234;BME280;26968;42.686;23.352;2023-11-19T07:46:41;95404.72;;;1.75;nan
41234;BME280;26968;42.686;23.352;2023-11-19T07:49:08;95367.03;;;1.58;nan
41234;BME280;26968;42.686;23.352;2023-11-19T07:51:35;95428.19;;;1.82;nan
41234;BME280;26968;42.686;23.352;2023-11-19T07:54:00;95411.91;;;1.80;nan
41234;BME280;26968;42.686;23.352;2023-11-19T07:56:26;95445.31;;;1.78;nan
41234;BME280;26968;42.686;23.352;2023-11-19T07:58:51;95380.78;;;1.72;nan
41234;BME280;26968;42.686;23.352;2023-11-19T08:01:17;95402.72;;;1.71;nan
41234;BME280;26968;42.686;23.352;2023-11-19T08:03:42;95412.06;;;1.85;nan
41234;BME280;26968;42.686;23.352;2023-11-19T08:06:08;95384.13;;;1.54;nan
41234;BME280;26968;42.686;23.352;2023-11-19T08:08:34;95431.88;;;1.74;nan
41234;BME280;26968;42.686;23.352;2023-11-19T08:11:00;95400.75;;;1.66;nan
41234;BME280;26968;42.686;23.352;2023-11-19T08:13:25;95415.53;;;1.79;nan
41234;BME280;26968;42.686;23.352;2023-11-19T08:15:51;95409.28;;;1.80;nan
41234;BME280;26968;42.686;23.352;2023-11-19T08:18:17;95375.34;;;1.48;nan
41234;BME280;26968;42.686;23.352;2023-11-19T08:20:44;95380.25;;;1.63;nan
41234;BME280;26968;42.686;23.352;2023-11-19T08:23:10;95368.72;;;1.71;nan
41234;BME280;26968;42.686;23.352;2023-11-19T08:25:35;95425.56;;;2.07;nan
41234;BME280;26968;42.686;23.352;2023-11-19T08:28:01;95447.13;;;2.27;nan
41234;BME280;26968;42.686;23.352;2023-11-19T08:30:29;95415.16;;;2.00;nan
41234;BME280;26968;42.686;23.352;2023-11-19T08:32:54;95437.69;;;2.01;nan
41234;BME280;26968;42.686;23.352;2023-11-19T08:35:20;95406.75;;;1.98;nan
41234;BME280;26968;42.686;23.352;2023-11-19T08:37:45;95407.69;;;1.79;nan
41234;BME280;26968;42.686;23.352;2023-11-19T08:40:11;95447.88;;;2.09;nan
41234;BME280;26968;42.686;23.352;2023-11-19T08:42:40;95402.25;;;1.80;nan
41234;BME280;26968;42.686;23.352;2023-11-19T08:45:07;95396.47;;;1.72;nan
41234;BME280;26968;42.686;23.352;2023-11-19T08:47:33;95436.19;;;2.12;nan
41234;BME280;26968;42.686;23.352;2023-11-19T08:49:59;95400.31;;;1.94;nan
41234;BME280;26968;42.686;23.352;2023-11-19T08:52:25;95474.31;;;2.26;nan
41234;BME280;26968;42.686;23.352;2023-11-19T08:54:50;95411.25;;;2.09;nan
41234;BME280;26968;42.686;23.352;2023-11-19T08:57:16;95432.50;;;2.19;nan
41234;BME280;26968;42.686;23.352;2023-11-19T08:59:41;95399.84;;;2.04;nan
41234;BME280;26968;42.686;23.352;2023-11-19T09:02:07;95411.19;;;1.98;nan
41234;BME280;26968;42.686;23.352;2023-11-19T09:04:33;95453.97;;;2.28;nan
41234;BME280;26968;42.686;23.352;2023-11-19T09:06:58;95426.09;;;2.15;nan
41234;BME280;26968;42.686;23.352;2023-11-19T09:09:24;95426.63;;;2.24;nan
41234;BME280;26968;42.686;23.352;2023-11-19T09:11:50;95418.31;;;2.09;nan
41234;BME280;26968;42.686;23.352;2023-11-19T09:14:16;95379.47;;;1.87;nan
41234;BME280;26968;42.686;23.352;2023-11-19T09:16:41;95378.00;;;1.91;nan
41234;BME280;26968;42.686;23.352;2023-11-19T09:19:06;95411.00;;;2.17;nan
41234;BME280;26968;42.686;23.352;2023-11-19T09:21:32;95392.88;;;2.16;nan
41234;BME280;26968;42.686;23.352;2023-11-19T09:23:59;95402.34;;;2.17;nan
41234;BME280;26968;42.686;23.352;2023-11-19T09:26:25;95371.69;;;1.99;nan
41234;BME280;26968;42.686;23.352;2023-11-19T09:28:50;95442.91;;;2.26;nan
41234;BME280;26968;42.686;23.352;2023-11-19T09:31:17;95462.78;;;2.52;nan
41234;BME280;26968;42.686;23.352;2023-11-19T09:33:43;95437.63;;;2.32;nan
41234;BME280;26968;42.686;23.352;2023-11-19T09:36:11;95438.00;;;2.54;nan
41234;BME280;26968;42.686;23.352;2023-11-19T09:38:39;95419.81;;;2.41;nan
41234;BME280;26968;42.686;23.352;2023-11-19T09:41:07;95423.69;;;2.57;nan
41234;BME280;26968;42.686;23.352;2023-11-19T09:43:34;95388.13;;;2.49;nan
41234;BME280;26968;42.686;23.352;2023-11-19T09:46:06;95406.72;;;2.41;nan
41234;BME280;26968;42.686;23.352;2023-11-19T09:48:35;95457.13;;;2.55;nan
41234;BME280;26968;42.686;23.352;2023-11-19T09:51:02;95400.78;;;2.34;nan
41234;BME280;26968;42.686;23.352;2023-11-19T09:53:28;95379.47;;;2.49;nan
41234;BME280;26968;42.686;23.352;2023-11-19T09:55:55;95380.56;;;2.59;nan
41234;BME280;26968;42.686;23.352;2023-11-19T09:58:21;95316.72;;;2.24;nan
41234;BME280;26968;42.686;23.352;2023-11-19T10:00:47;95398.97;;;2.89;nan
41234;BME280;26968;42.686;23.352;2023-11-19T10:03:13;95408.06;;;2.87;nan
41234;BME280;26968;42.686;23.352;2023-11-19T10:05:39;95240.41;;;2.09;nan
41234;BME280;26968;42.686;23.352;2023-11-19T10:08:06;95415.84;;;3.53;nan
41234;BME280;26968;42.686;23.352;2023-11-19T10:10:33;95377.63;;;3.45;nan
41234;BME280;26968;42.686;23.352;2023-11-19T10:12:59;95388.13;;;3.45;nan
41234;BME280;26968;42.686;23.352;2023-11-19T10:15:26;95349.22;;;3.01;nan
41234;BME280;26968;42.686;23.352;2023-11-19T10:17:58;95345.22;;;2.98;nan
41234;BME280;26968;42.686;23.352;2023-11-19T10:20:24;95365.66;;;3.38;nan
41234;BME280;26968;42.686;23.352;2023-11-19T10:22:53;95399.66;;;4.21;nan
41234;BME280;26968;42.686;23.352;2023-11-19T10:25:27;95384.94;;;4.08;nan
41234;BME280;26968;42.686;23.352;2023-11-19T10:27:54;95356.16;;;4.13;nan
41234;BME280;26968;42.686;23.352;2023-11-19T10:30:28;95367.59;;;4.19;nan
41234;BME280;26968;42.686;23.352;2023-11-19T10:33:13;95395.03;;;3.81;nan
41234;BME280;26968;42.686;23.352;2023-11-19T10:35:56;95379.78;;;4.02;nan
41234;BME280;26968;42.686;23.352;2023-11-19T10:38:23;95351.03;;;3.83;nan
41234;BME280;26968;42.686;23.352;2023-11-19T10:40:50;95344.03;;;3.42;nan
41234;BME280;26968;42.686;23.352;2023-11-19T10:43:19;95350.84;;;3.43;nan
41234;BME280;26968;42.686;23.352;2023-11-19T10:45:46;95284.41;;;2.96;nan
41234;BME280;26968;42.686;23.352;2023-11-19T10:48:12;95253.84;;;2.60;nan
41234;BME280;26968;42.686;23.352;2023-11-19T10:50:39;95299.03;;;2.74;nan
41234;BME280;26968;42.686;23.352;2023-11-19T10:53:07;95365.72;;;3.20;nan
41234;BME280;26968;42.686;23.352;2023-11-19T10:55:35;95254.31;;;2.57;nan
41234;BME280;26968;42.686;23.352;2023-11-19T10:58:02;95364.72;;;3.32;nan
41234;BME280;26968;42.686;23.352;2023-11-19T11:00:29;95338.72;;;3.19;nan
41234;BME280;26968;42.686;23.352;2023-11-19T11:03:01;95383.69;;;3.46;nan
41234;BME280;26968;42.686;23.352;2023-11-19T11:05:32;95345.25;;;3.40;nan
41234;BME280;26968;42.686;23.352;2023-11-19T11:08:01;95357.13;;;3.54;nan
41234;BME280;26968;42.686;23.352;2023-11-19T11:10:28;95318.06;;;3.64;nan
41234;BME280;26968;42.686;23.352;2023-11-19T11:12:59;95338.03;;;4.00;nan
41234;BME280;26968;42.686;23.352;2023-11-19T11:15:27;95346.69;;;4.12;nan
41234;BME280;26968;42.686;23.352;2023-11-19T11:17:59;95329.44;;;4.40;nan
41234;BME280;26968;42.686;23.352;2023-11-19T11:20:28;95245.16;;;4.01;nan
41234;BME280;26968;42.686;23.352;2023-11-19T11:23:35;95331.53;;;4.78;nan
41234;BME280;26968;42.686;23.352;2023-11-19T11:28:46;95339.22;;;4.96;nan
41234;BME280;26968;42.686;23.352;2023-11-19T11:31:24;95340.72;;;4.92;nan
41234;BME280;26968;42.686;23.352;2023-11-19T11:37:10;95332.66;;;4.82;nan
41234;BME280;26968;42.686;23.352;2023-11-19T11:39:39;95314.25;;;4.42;nan
41234;BME280;26968;42.686;23.352;2023-11-19T11:45:15;95310.25;;;4.39;nan
41234;BME280;26968;42.686;23.352;2023-11-19T11:50:16;95286.09;;;4.25;nan
41234;BME280;26968;42.686;23.352;2023-11-19T11:58:21;95258.91;;;4.20;nan
41234;BME280;26968;42.686;23.352;2023-11-19T12:00:48;95277.72;;;4.40;nan
41234;BME280;26968;42.686;23.352;2023-11-19T12:03:14;95307.34;;;4.64;nan
41234;BME280;26968;42.686;23.352;2023-11-19T12:05:47;95320.13;;;4.72;nan
41234;BME280;26968;42.686;23.352;2023-11-19T12:08:14;95274.06;;;4.41;nan
41234;BME280;26968;42.686;23.352;2023-11-19T12:10:51;95265.84;;;4.49;nan
41234;BME280;26968;42.686;23.352;2023-11-19T12:13:18;95276.16;;;4.68;nan
41234;BME280;26968;42.686;23.352;2023-11-19T12:18:27;95271.03;;;4.89;nan
41234;BME280;26968;42.686;23.352;2023-11-19T12:20:53;95272.25;;;4.98;nan
41234;BME280;26968;42.686;23.352;2023-11-19T12:23:19;95239.50;;;4.89;nan
41234;BME280;26968;42.686;23.352;2023-11-19T12:25:44;95245.56;;;4.90;nan
41234;BME280;26968;42.686;23.352;2023-11-19T12:28:13;95244.59;;;4.96;nan
41234;BME280;26968;42.686;23.352;2023-11-19T12:30:39;95233.78;;;4.92;nan
41234;BME280;26968;42.686;23.352;2023-11-19T12:33:08;95270.47;;;5.16;nan
41234;BME280;26968;42.686;23.352;2023-11-19T12:35:47;95213.59;;;4.81;nan
41234;BME280;26968;42.686;23.352;2023-11-19T12:38:26;95262.19;;;5.24;nan
41234;BME280;26968;42.686;23.352;2023-11-19T12:41:05;95268.41;;;5.18;nan
41234;BME280;26968;42.686;23.352;2023-11-19T12:43:31;95191.25;;;4.79;nan
41234;BME280;26968;42.686;23.352;2023-11-19T12:45:57;95236.47;;;5.26;nan
41234;BME280;26968;42.686;23.352;2023-11-19T12:48:22;95221.22;;;5.11;nan
41234;BME280;26968;42.686;23.352;2023-11-19T12:50:55;95234.34;;;5.11;nan
41234;BME280;26968;42.686;23.352;2023-11-19T12:53:23;95243.03;;;5.12;nan
41234;BME280;26968;42.686;23.352;2023-11-19T12:55:50;95242.66;;;5.20;nan
41234;BME280;26968;42.686;23.352;2023-11-19T12:58:33;95255.34;;;5.23;nan
41234;BME280;26968;42.686;23.352;2023-11-19T13:00:59;95207.94;;;5.18;nan
41234;BME280;26968;42.686;23.352;2023-11-19T13:03:32;95213.56;;;5.43;nan
41234;BME280;26968;42.686;23.352;2023-11-19T13:06:02;95138.84;;;4.89;nan
41234;BME280;26968;42.686;23.352;2023-11-19T13:08:35;95192.56;;;5.26;nan
41234;BME280;26968;42.686;23.352;2023-11-19T13:11:03;95208.31;;;5.43;nan
41234;BME280;26968;42.686;23.352;2023-11-19T13:13:28;95185.53;;;5.15;nan
41234;BME280;26968;42.686;23.352;2023-11-19T13:16:03;95220.34;;;5.39;nan
41234;BME280;26968;42.686;23.352;2023-11-19T13:18:31;95219.00;;;5.36;nan
41234;BME280;26968;42.686;23.352;2023-11-19T13:20:56;95195.09;;;5.38;nan
41234;BME280;26968;42.686;23.352;2023-11-19T13:23:24;95173.53;;;5.58;nan
41234;BME280;26968;42.686;23.352;2023-11-19T13:25:50;95213.94;;;5.68;nan
41234;BME280;26968;42.686;23.352;2023-11-19T13:28:15;95173.19;;;5.49;nan
41234;BME280;26968;42.686;23.352;2023-11-19T13:30:41;95187.50;;;5.58;nan
41234;BME280;26968;42.686;23.352;2023-11-19T13:33:06;95174.28;;;5.53;nan
41234;BME280;26968;42.686;23.352;2023-11-19T13:35:32;95221.91;;;5.73;nan
41234;BME280;26968;42.686;23.352;2023-11-19T13:37:57;95185.53;;;5.49;nan
41234;BME280;26968;42.686;23.352;2023-11-19T13:40:23;95198.97;;;5.69;nan
41234;BME280;26968;42.686;23.352;2023-11-19T13:42:50;95203.78;;;5.55;nan